Current Weather

Long Island Mac Arthur

New York, New York (KISP)

Report from: Friday, February 23, 2024 1:56 PM EST
Current time: Friday, February 23, 2024 2:50 PM EST

Nearby weather – Weather history – Daily summaries
Weather forecast

Present weatherLight rain
Temperature7.2°C (45.0°F)
Wind chill4.8°C (40.6°F)
Dew point5.0°C (41.0°F)
Winds 7 kts (3.6 m/s, 8.1 mph) North (360°)
Visibility10 mi. (16.1 km)
Clouds Ceiling: Broken clouds 1,200 ft. (366 m)
Broken clouds 3,800 ft. (1,158 m)
Overcast 6,000 ft. (1,829 m)
Altimeter29.45 in.Hg (997 mB)
PrecipitiationTrace
Relative humidity86 %
Density altitude-262 ft. (-80 m)
Sea-level pressure99.7 kPa (997 mB, 29.45 in.Hg)
Remarks Automated weather observing station with precipitation discriminator
Flight conditions Marginal Visual Meteorological Conditions
Raw dataKISP 231856Z 36007KT 10SM -RA BKN012 BKN038 OVC060 07/05 A2945 RMK AO2 SLP972 P0000 T00720050
An error has occurred. This application may no longer respond until reloaded. Reload 🗙